sensor_id;sensor_type;location;lat;lon;timestamp;temperature;humidity
17208;DHT22;8720;48.488;9.202;2023-06-19T00:01:08;26.00;34.70
17208;DHT22;8720;48.488;9.202;2023-06-19T00:03:35;26.00;34.90
17208;DHT22;8720;48.488;9.202;2023-06-19T00:06:05;25.90;34.80
17208;DHT22;8720;48.488;9.202;2023-06-19T00:08:33;25.90;35.10
17208;DHT22;8720;48.488;9.202;2023-06-19T00:11:01;25.90;34.90
17208;DHT22;8720;48.488;9.202;2023-06-19T00:13:28;25.80;35.20
17208;DHT22;8720;48.488;9.202;2023-06-19T00:15:56;25.80;35.30
17208;DHT22;8720;48.488;9.202;2023-06-19T00:18:26;25.80;35.40
17208;DHT22;8720;48.488;9.202;2023-06-19T00:20:53;25.70;35.50
17208;DHT22;8720;48.488;9.202;2023-06-19T00:23:23;25.70;35.70
17208;DHT22;8720;48.488;9.202;2023-06-19T00:25:50;25.70;36.00
17208;DHT22;8720;48.488;9.202;2023-06-19T00:28:17;25.70;35.90
17208;DHT22;8720;48.488;9.202;2023-06-19T00:30:47;25.60;36.00
17208;DHT22;8720;48.488;9.202;2023-06-19T00:33:14;25.60;36.20
17208;DHT22;8720;48.488;9.202;2023-06-19T00:35:41;25.50;36.30
17208;DHT22;8720;48.488;9.202;2023-06-19T00:38:09;25.50;36.40
17208;DHT22;8720;48.488;9.202;2023-06-19T00:40:39;25.40;36.50
17208;DHT22;8720;48.488;9.202;2023-06-19T00:43:08;25.40;36.90
17208;DHT22;8720;48.488;9.202;2023-06-19T00:45:36;25.30;36.80
17208;DHT22;8720;48.488;9.202;2023-06-19T00:48:04;25.20;36.90
17208;DHT22;8720;48.488;9.202;2023-06-19T00:50:31;25.20;37.00
17208;DHT22;8720;48.488;9.202;2023-06-19T00:52:59;25.10;37.00
17208;DHT22;8720;48.488;9.202;2023-06-19T00:55:29;25.10;37.10
17208;DHT22;8720;48.488;9.202;2023-06-19T00:58:00;25.00;36.90
17208;DHT22;8720;48.488;9.202;2023-06-19T01:00:28;24.90;37.60
17208;DHT22;8720;48.488;9.202;2023-06-19T01:02:57;24.90;37.10
17208;DHT22;8720;48.488;9.202;2023-06-19T01:05:25;24.80;37.10
17208;DHT22;8720;48.488;9.202;2023-06-19T01:07:58;24.80;37.50
17208;DHT22;8720;48.488;9.202;2023-06-19T01:10:34;24.80;37.80
17208;DHT22;8720;48.488;9.202;2023-06-19T01:13:12;24.70;37.60
17208;DHT22;8720;48.488;9.202;2023-06-19T01:15:43;24.70;37.70
17208;DHT22;8720;48.488;9.202;2023-06-19T01:18:12;24.70;37.60
17208;DHT22;8720;48.488;9.202;2023-06-19T01:20:42;24.70;37.60
17208;DHT22;8720;48.488;9.202;2023-06-19T01:23:11;24.70;38.00
17208;DHT22;8720;48.488;9.202;2023-06-19T01:25:39;24.60;38.10
17208;DHT22;8720;48.488;9.202;2023-06-19T01:28:08;24.60;38.00
17208;DHT22;8720;48.488;9.202;2023-06-19T01:30:39;24.60;38.30
17208;DHT22;8720;48.488;9.202;2023-06-19T01:33:12;24.60;38.30
17208;DHT22;8720;48.488;9.202;2023-06-19T01:35:43;24.60;38.30
17208;DHT22;8720;48.488;9.202;2023-06-19T01:38:14;24.50;38.10
17208;DHT22;8720;48.488;9.202;2023-06-19T01:40:43;24.50;38.20
17208;DHT22;8720;48.488;9.202;2023-06-19T01:43:12;24.50;38.40
17208;DHT22;8720;48.488;9.202;2023-06-19T01:45:40;24.50;38.40
17208;DHT22;8720;48.488;9.202;2023-06-19T01:48:08;24.50;38.50
17208;DHT22;8720;48.488;9.202;2023-06-19T01:50:38;24.50;38.50
17208;DHT22;8720;48.488;9.202;2023-06-19T01:53:05;24.50;38.40
17208;DHT22;8720;48.488;9.202;2023-06-19T01:55:34;24.50;38.40
17208;DHT22;8720;48.488;9.202;2023-06-19T01:58:01;24.50;38.50
17208;DHT22;8720;48.488;9.202;2023-06-19T02:05:46;24.50;38.50
17208;DHT22;8720;48.488;9.202;2023-06-19T02:08:14;24.50;38.50
17208;DHT22;8720;48.488;9.202;2023-06-19T02:10:42;24.50;38.60
17208;DHT22;8720;48.488;9.202;2023-06-19T02:13:10;24.50;38.80
17208;DHT22;8720;48.488;9.202;2023-06-19T02:18:08;24.50;39.10
17208;DHT22;8720;48.488;9.202;2023-06-19T02:20:35;24.50;39.00
17208;DHT22;8720;48.488;9.202;2023-06-19T02:23:02;24.40;39.10
17208;DHT22;8720;48.488;9.202;2023-06-19T02:25:30;24.40;39.30
17208;DHT22;8720;48.488;9.202;2023-06-19T02:27:58;24.40;39.40
17208;DHT22;8720;48.488;9.202;2023-06-19T02:30:26;24.40;39.60
17208;DHT22;8720;48.488;9.202;2023-06-19T02:32:53;24.30;39.50
17208;DHT22;8720;48.488;9.202;2023-06-19T02:35:20;24.30;39.60
17208;DHT22;8720;48.488;9.202;2023-06-19T02:37:47;24.30;39.70
17208;DHT22;8720;48.488;9.202;2023-06-19T02:40:14;24.30;39.80
17208;DHT22;8720;48.488;9.202;2023-06-19T02:42:42;24.30;39.90
17208;DHT22;8720;48.488;9.202;2023-06-19T02:45:10;24.30;40.00
17208;DHT22;8720;48.488;9.202;2023-06-19T02:47:38;24.20;40.10
17208;DHT22;8720;48.488;9.202;2023-06-19T02:50:06;24.20;40.00
17208;DHT22;8720;48.488;9.202;2023-06-19T02:52:35;24.20;40.10
17208;DHT22;8720;48.488;9.202;2023-06-19T02:55:03;24.20;40.10
17208;DHT22;8720;48.488;9.202;2023-06-19T02:57:32;24.20;40.20
17208;DHT22;8720;48.488;9.202;2023-06-19T03:00:02;24.10;40.90
17208;DHT22;8720;48.488;9.202;2023-06-19T03:02:36;24.10;40.30
17208;DHT22;8720;48.488;9.202;2023-06-19T03:05:09;24.10;40.50
17208;DHT22;8720;48.488;9.202;2023-06-19T03:07:37;24.10;40.40
17208;DHT22;8720;48.488;9.202;2023-06-19T03:10:05;24.10;41.20
17208;DHT22;8720;48.488;9.202;2023-06-19T03:12:33;24.10;40.60
17208;DHT22;8720;48.488;9.202;2023-06-19T03:15:01;24.10;40.70
17208;DHT22;8720;48.488;9.202;2023-06-19T03:17:31;24.10;40.70
17208;DHT22;8720;48.488;9.202;2023-06-19T03:20:00;24.10;40.70
17208;DHT22;8720;48.488;9.202;2023-06-19T03:22:29;24.10;40.90
17208;DHT22;8720;48.488;9.202;2023-06-19T03:24:56;24.10;40.80
17208;DHT22;8720;48.488;9.202;2023-06-19T03:27:23;24.10;40.90
17208;DHT22;8720;48.488;9.202;2023-06-19T03:29:53;24.10;40.90
17208;DHT22;8720;48.488;9.202;2023-06-19T03:32:29;24.10;40.90
17208;DHT22;8720;48.488;9.202;2023-06-19T03:34:56;24.10;40.90
17208;DHT22;8720;48.488;9.202;2023-06-19T03:37:26;24.10;40.90
17208;DHT22;8720;48.488;9.202;2023-06-19T03:39:54;24.10;41.00
17208;DHT22;8720;48.488;9.202;2023-06-19T03:42:21;24.10;41.00
17208;DHT22;8720;48.488;9.202;2023-06-19T03:44:48;24.00;41.00
17208;DHT22;8720;48.488;9.202;2023-06-19T03:47:16;24.00;40.80
17208;DHT22;8720;48.488;9.202;2023-06-19T03:49:44;24.10;41.00
17208;DHT22;8720;48.488;9.202;2023-06-19T03:52:11;24.10;41.00
17208;DHT22;8720;48.488;9.202;2023-06-19T03:54:40;24.10;41.50
17208;DHT22;8720;48.488;9.202;2023-06-19T03:57:08;24.10;41.00
17208;DHT22;8720;48.488;9.202;2023-06-19T03:59:35;24.10;40.90
17208;DHT22;8720;48.488;9.202;2023-06-19T04:02:02;24.10;40.90
17208;DHT22;8720;48.488;9.202;2023-06-19T04:04:30;24.10;40.90
17208;DHT22;8720;48.488;9.202;2023-06-19T04:06:57;24.10;40.90
17208;DHT22;8720;48.488;9.202;2023-06-19T04:09:25;24.10;40.90
17208;DHT22;8720;48.488;9.202;2023-06-19T04:11:54;24.10;40.80
17208;DHT22;8720;48.488;9.202;2023-06-19T04:14:23;24.20;41.00
17208;DHT22;8720;48.488;9.202;2023-06-19T04:16:50;24.20;41.00
17208;DHT22;8720;48.488;9.202;2023-06-19T04:19:17;24.10;41.00
17208;DHT22;8720;48.488;9.202;2023-06-19T04:21:45;24.20;41.10
17208;DHT22;8720;48.488;9.202;2023-06-19T04:24:12;24.20;41.10
17208;DHT22;8720;48.488;9.202;2023-06-19T04:26:39;24.20;41.10
17208;DHT22;8720;48.488;9.202;2023-06-19T04:29:09;24.30;41.20
17208;DHT22;8720;48.488;9.202;2023-06-19T04:31:42;24.20;41.30
17208;DHT22;8720;48.488;9.202;2023-06-19T04:34:12;24.30;41.20
17208;DHT22;8720;48.488;9.202;2023-06-19T04:36:41;24.30;41.50
17208;DHT22;8720;48.488;9.202;2023-06-19T04:39:08;24.30;42.40
17208;DHT22;8720;48.488;9.202;2023-06-19T04:41:36;24.30;42.90
17208;DHT22;8720;48.488;9.202;2023-06-19T04:44:04;24.20;43.30
17208;DHT22;8720;48.488;9.202;2023-06-19T04:46:33;24.10;45.70
17208;DHT22;8720;48.488;9.202;2023-06-19T04:49:00;24.10;45.00
17208;DHT22;8720;48.488;9.202;2023-06-19T04:51:30;24.10;45.00
17208;DHT22;8720;48.488;9.202;2023-06-19T04:53:58;24.10;44.20
17208;DHT22;8720;48.488;9.202;2023-06-19T04:56:25;24.00;44.20
17208;DHT22;8720;48.488;9.202;2023-06-19T04:58:53;24.00;44.60
17208;DHT22;8720;48.488;9.202;2023-06-19T05:01:23;24.00;45.00
17208;DHT22;8720;48.488;9.202;2023-06-19T05:03:55;23.90;46.00
17208;DHT22;8720;48.488;9.202;2023-06-19T05:06:23;23.90;45.90
17208;DHT22;8720;48.488;9.202;2023-06-19T05:08:50;23.90;45.70
17208;DHT22;8720;48.488;9.202;2023-06-19T05:11:18;23.90;45.50
17208;DHT22;8720;48.488;9.202;2023-06-19T05:13:45;23.80;46.00
17208;DHT22;8720;48.488;9.202;2023-06-19T05:16:12;23.80;46.00
17208;DHT22;8720;48.488;9.202;2023-06-19T05:18:42;23.80;46.80
17208;DHT22;8720;48.488;9.202;2023-06-19T05:21:11;23.80;46.10
17208;DHT22;8720;48.488;9.202;2023-06-19T05:23:38;23.70;46.90
17208;DHT22;8720;48.488;9.202;2023-06-19T05:26:06;23.70;46.80
17208;DHT22;8720;48.488;9.202;2023-06-19T05:28:33;23.70;48.40
17208;DHT22;8720;48.488;9.202;2023-06-19T05:31:01;23.70;47.90
17208;DHT22;8720;48.488;9.202;2023-06-19T05:33:30;23.70;48.10
17208;DHT22;8720;48.488;9.202;2023-06-19T05:35:57;23.70;48.80
17208;DHT22;8720;48.488;9.202;2023-06-19T05:38:26;23.70;48.80
17208;DHT22;8720;48.488;9.202;2023-06-19T05:40:56;23.70;48.70
17208;DHT22;8720;48.488;9.202;2023-06-19T05:43:23;23.80;48.80
17208;DHT22;8720;48.488;9.202;2023-06-19T05:45:51;23.80;49.10
17208;DHT22;8720;48.488;9.202;2023-06-19T05:48:19;23.80;49.50
17208;DHT22;8720;48.488;9.202;2023-06-19T05:50:47;23.90;49.50
17208;DHT22;8720;48.488;9.202;2023-06-19T05:53:14;23.90;49.80
17208;DHT22;8720;48.488;9.202;2023-06-19T05:55:43;24.00;49.80
17208;DHT22;8720;48.488;9.202;2023-06-19T05:58:10;24.00;48.90
17208;DHT22;8720;48.488;9.202;2023-06-19T06:00:37;24.10;48.80
17208;DHT22;8720;48.488;9.202;2023-06-19T06:03:05;24.10;48.60
17208;DHT22;8720;48.488;9.202;2023-06-19T06:05:32;24.20;49.00
17208;DHT22;8720;48.488;9.202;2023-06-19T06:08:01;24.30;49.40
17208;DHT22;8720;48.488;9.202;2023-06-19T06:10:28;24.30;48.80
17208;DHT22;8720;48.488;9.202;2023-06-19T06:12:57;24.40;49.20
17208;DHT22;8720;48.488;9.202;2023-06-19T06:15:24;24.40;48.90
17208;DHT22;8720;48.488;9.202;2023-06-19T06:17:52;24.50;49.10
17208;DHT22;8720;48.488;9.202;2023-06-19T06:20:19;24.50;48.90
17208;DHT22;8720;48.488;9.202;2023-06-19T06:22:46;24.50;48.90
17208;DHT22;8720;48.488;9.202;2023-06-19T06:25:13;24.60;48.80
17208;DHT22;8720;48.488;9.202;2023-06-19T06:27:41;24.60;48.90
17208;DHT22;8720;48.488;9.202;2023-06-19T06:30:11;24.70;49.40
17208;DHT22;8720;48.488;9.202;2023-06-19T06:32:39;24.80;49.70
17208;DHT22;8720;48.488;9.202;2023-06-19T06:35:07;24.80;49.40
17208;DHT22;8720;48.488;9.202;2023-06-19T06:37:34;24.90;49.30
17208;DHT22;8720;48.488;9.202;2023-06-19T06:40:02;25.00;49.20
17208;DHT22;8720;48.488;9.202;2023-06-19T06:42:33;25.10;49.60
17208;DHT22;8720;48.488;9.202;2023-06-19T06:45:01;25.20;48.90
17208;DHT22;8720;48.488;9.202;2023-06-19T06:47:29;25.20;50.00
17208;DHT22;8720;48.488;9.202;2023-06-19T06:49:57;25.30;49.50
17208;DHT22;8720;48.488;9.202;2023-06-19T06:52:24;25.40;49.20
17208;DHT22;8720;48.488;9.202;2023-06-19T06:54:52;25.70;49.30
17208;DHT22;8720;48.488;9.202;2023-06-19T06:57:19;26.00;48.60
17208;DHT22;8720;48.488;9.202;2023-06-19T06:59:46;26.40;48.10
17208;DHT22;8720;48.488;9.202;2023-06-19T07:02:14;26.70;47.50
17208;DHT22;8720;48.488;9.202;2023-06-19T07:04:42;27.00;47.00
17208;DHT22;8720;48.488;9.202;2023-06-19T07:07:10;27.30;46.10
17208;DHT22;8720;48.488;9.202;2023-06-19T07:09:37;27.50;45.70
17208;DHT22;8720;48.488;9.202;2023-06-19T07:12:05;27.60;45.40
17208;DHT22;8720;48.488;9.202;2023-06-19T07:14:33;27.60;45.10
17208;DHT22;8720;48.488;9.202;2023-06-19T07:17:00;27.70;44.90
17208;DHT22;8720;48.488;9.202;2023-06-19T07:19:27;27.70;44.70
17208;DHT22;8720;48.488;9.202;2023-06-19T07:21:56;27.80;44.60
17208;DHT22;8720;48.488;9.202;2023-06-19T07:24:24;27.80;44.50
17208;DHT22;8720;48.488;9.202;2023-06-19T07:26:53;27.80;44.60
17208;DHT22;8720;48.488;9.202;2023-06-19T07:29:22;27.80;44.50
17208;DHT22;8720;48.488;9.202;2023-06-19T07:31:51;27.80;44.40
17208;DHT22;8720;48.488;9.202;2023-06-19T07:34:18;27.80;44.30
17208;DHT22;8720;48.488;9.202;2023-06-19T07:36:45;27.80;44.40
17208;DHT22;8720;48.488;9.202;2023-06-19T07:39:14;27.80;44.10
17208;DHT22;8720;48.488;9.202;2023-06-19T07:41:41;27.90;44.20
17208;DHT22;8720;48.488;9.202;2023-06-19T07:44:10;28.10;44.70
17208;DHT22;8720;48.488;9.202;2023-06-19T07:46:37;28.50;44.80
17208;DHT22;8720;48.488;9.202;2023-06-19T07:49:04;29.10;44.00
17208;DHT22;8720;48.488;9.202;2023-06-19T07:51:32;29.60;43.20
17208;DHT22;8720;48.488;9.202;2023-06-19T07:53:59;29.90;42.30
17208;DHT22;8720;48.488;9.202;2023-06-19T07:56:28;30.20;41.80
17208;DHT22;8720;48.488;9.202;2023-06-19T07:58:55;30.40;40.80
17208;DHT22;8720;48.488;9.202;2023-06-19T08:01:22;30.50;41.20
17208;DHT22;8720;48.488;9.202;2023-06-19T08:03:49;30.50;40.30
17208;DHT22;8720;48.488;9.202;2023-06-19T08:06:17;30.50;40.40
17208;DHT22;8720;48.488;9.202;2023-06-19T08:08:44;30.60;40.20
17208;DHT22;8720;48.488;9.202;2023-06-19T08:11:12;30.70;40.20
17208;DHT22;8720;48.488;9.202;2023-06-19T08:13:41;30.70;39.60
17208;DHT22;8720;48.488;9.202;2023-06-19T08:16:08;30.80;39.20
17208;DHT22;8720;48.488;9.202;2023-06-19T08:18:36;30.90;39.10
17208;DHT22;8720;48.488;9.202;2023-06-19T08:21:03;31.00;39.20
17208;DHT22;8720;48.488;9.202;2023-06-19T08:23:31;31.10;39.00
17208;DHT22;8720;48.488;9.202;2023-06-19T08:25:58;31.40;39.20
17208;DHT22;8720;48.488;9.202;2023-06-19T08:28:25;31.60;38.00
17208;DHT22;8720;48.488;9.202;2023-06-19T08:30:54;31.80;37.70
17208;DHT22;8720;48.488;9.202;2023-06-19T08:33:21;32.10;36.50
17208;DHT22;8720;48.488;9.202;2023-06-19T08:35:48;32.40;36.20
17208;DHT22;8720;48.488;9.202;2023-06-19T08:38:16;32.70;36.80
17208;DHT22;8720;48.488;9.202;2023-06-19T08:40:44;33.00;36.70
17208;DHT22;8720;48.488;9.202;2023-06-19T08:43:11;33.50;34.90
17208;DHT22;8720;48.488;9.202;2023-06-19T08:45:40;33.70;34.50
17208;DHT22;8720;48.488;9.202;2023-06-19T08:48:13;34.00;33.40
17208;DHT22;8720;48.488;9.202;2023-06-19T08:50:41;34.10;32.00
17208;DHT22;8720;48.488;9.202;2023-06-19T08:53:08;34.20;32.30
17208;DHT22;8720;48.488;9.202;2023-06-19T08:55:35;34.10;31.80
17208;DHT22;8720;48.488;9.202;2023-06-19T08:58:03;34.00;31.60
17208;DHT22;8720;48.488;9.202;2023-06-19T09:00:30;33.90;31.60
17208;DHT22;8720;48.488;9.202;2023-06-19T09:03:00;33.70;31.70
17208;DHT22;8720;48.488;9.202;2023-06-19T09:05:29;33.60;32.00
17208;DHT22;8720;48.488;9.202;2023-06-19T09:07:58;33.50;32.20
17208;DHT22;8720;48.488;9.202;2023-06-19T09:10:29;33.30;32.60
17208;DHT22;8720;48.488;9.202;2023-06-19T09:13:01;33.20;33.20
17208;DHT22;8720;48.488;9.202;2023-06-19T09:15:34;33.20;33.50
17208;DHT22;8720;48.488;9.202;2023-06-19T09:18:05;33.30;33.60
17208;DHT22;8720;48.488;9.202;2023-06-19T09:20:37;33.30;33.00
17208;DHT22;8720;48.488;9.202;2023-06-19T09:23:07;33.30;32.80
17208;DHT22;8720;48.488;9.202;2023-06-19T09:25:44;33.40;33.00
17208;DHT22;8720;48.488;9.202;2023-06-19T09:28:17;33.40;32.30
17208;DHT22;8720;48.488;9.202;2023-06-19T09:30:54;33.40;32.40
17208;DHT22;8720;48.488;9.202;2023-06-19T09:33:26;33.40;32.60
17208;DHT22;8720;48.488;9.202;2023-06-19T09:35:56;33.30;32.30
17208;DHT22;8720;48.488;9.202;2023-06-19T09:38:26;33.30;32.30
17208;DHT22;8720;48.488;9.202;2023-06-19T09:40:54;33.30;32.30
17208;DHT22;8720;48.488;9.202;2023-06-19T09:43:25;33.30;32.40
17208;DHT22;8720;48.488;9.202;2023-06-19T09:45:57;33.40;32.20
17208;DHT22;8720;48.488;9.202;2023-06-19T09:48:28;33.40;31.80
17208;DHT22;8720;48.488;9.202;2023-06-19T09:51:06;33.40;31.30
17208;DHT22;8720;48.488;9.202;2023-06-19T09:53:39;33.40;30.70
17208;DHT22;8720;48.488;9.202;2023-06-19T09:56:07;33.30;31.00
17208;DHT22;8720;48.488;9.202;2023-06-19T09:58:36;33.30;30.90
17208;DHT22;8720;48.488;9.202;2023-06-19T10:01:04;33.30;30.90
17208;DHT22;8720;48.488;9.202;2023-06-19T10:03:33;33.20;31.10
17208;DHT22;8720;48.488;9.202;2023-06-19T10:06:04;33.20;30.90
17208;DHT22;8720;48.488;9.202;2023-06-19T10:08:38;33.20;30.60
17208;DHT22;8720;48.488;9.202;2023-06-19T10:11:06;33.30;30.40
17208;DHT22;8720;48.488;9.202;2023-06-19T10:13:35;33.30;30.40
17208;DHT22;8720;48.488;9.202;2023-06-19T10:16:04;33.30;30.30
17208;DHT22;8720;48.488;9.202;2023-06-19T10:18:32;33.30;30.30
17208;DHT22;8720;48.488;9.202;2023-06-19T10:21:17;33.20;30.10
17208;DHT22;8720;48.488;9.202;2023-06-19T10:23:53;33.20;30.00
17208;DHT22;8720;48.488;9.202;2023-06-19T10:26:30;33.10;30.00
17208;DHT22;8720;48.488;9.202;2023-06-19T10:28:58;33.10;30.00
17208;DHT22;8720;48.488;9.202;2023-06-19T10:31:26;33.10;30.20
17208;DHT22;8720;48.488;9.202;2023-06-19T10:33:54;33.00;30.00
17208;DHT22;8720;48.488;9.202;2023-06-19T10:36:23;33.00;30.00
17208;DHT22;8720;48.488;9.202;2023-06-19T10:38:51;32.90;30.00
17208;DHT22;8720;48.488;9.202;2023-06-19T10:41:21;32.90;30.00
17208;DHT22;8720;48.488;9.202;2023-06-19T10:43:55;32.80;30.00
17208;DHT22;8720;48.488;9.202;2023-06-19T10:46:24;32.70;30.10
17208;DHT22;8720;48.488;9.202;2023-06-19T10:48:58;32.70;30.20
17208;DHT22;8720;48.488;9.202;2023-06-19T10:51:28;32.60;30.30
17208;DHT22;8720;48.488;9.202;2023-06-19T10:53:56;32.50;30.30
17208;DHT22;8720;48.488;9.202;2023-06-19T10:56:25;32.50;30.60
17208;DHT22;8720;48.488;9.202;2023-06-19T10:58:57;32.50;30.30
17208;DHT22;8720;48.488;9.202;2023-06-19T11:01:33;32.50;30.70
17208;DHT22;8720;48.488;9.202;2023-06-19T11:04:03;32.40;30.40
17208;DHT22;8720;48.488;9.202;2023-06-19T11:06:33;32.40;30.20
17208;DHT22;8720;48.488;9.202;2023-06-19T11:09:01;32.40;30.20
17208;DHT22;8720;48.488;9.202;2023-06-19T11:11:37;32.40;30.30
17208;DHT22;8720;48.488;9.202;2023-06-19T11:14:06;32.40;30.10
17208;DHT22;8720;48.488;9.202;2023-06-19T11:16:35;32.40;30.20
17208;DHT22;8720;48.488;9.202;2023-06-19T11:19:07;32.50;30.10
17208;DHT22;8720;48.488;9.202;2023-06-19T11:21:37;32.40;29.90
17208;DHT22;8720;48.488;9.202;2023-06-19T11:24:06;32.40;29.90
17208;DHT22;8720;48.488;9.202;2023-06-19T11:26:38;32.40;30.00
17208;DHT22;8720;48.488;9.202;2023-06-19T11:29:16;32.40;30.00
17208;DHT22;8720;48.488;9.202;2023-06-19T11:31:45;32.40;29.90
17208;DHT22;8720;48.488;9.202;2023-06-19T11:34:13;32.40;30.10
17208;DHT22;8720;48.488;9.202;2023-06-19T11:36:43;32.30;30.00
17208;DHT22;8720;48.488;9.202;2023-06-19T11:39:12;32.40;29.80
17208;DHT22;8720;48.488;9.202;2023-06-19T11:41:44;32.30;30.00
17208;DHT22;8720;48.488;9.202;2023-06-19T11:44:12;32.20;30.00
17208;DHT22;8720;48.488;9.202;2023-06-19T11:46:39;32.20;30.00
17208;DHT22;8720;48.488;9.202;2023-06-19T11:49:11;32.20;29.70
17208;DHT22;8720;48.488;9.202;2023-06-19T11:51:39;32.20;29.70
17208;DHT22;8720;48.488;9.202;2023-06-19T11:54:10;32.20;29.80
17208;DHT22;8720;48.488;9.202;2023-06-19T11:56:40;32.20;29.40
17208;DHT22;8720;48.488;9.202;2023-06-19T11:59:08;32.20;29.50
17208;DHT22;8720;48.488;9.202;2023-06-19T12:01:37;32.30;29.30
17208;DHT22;8720;48.488;9.202;2023-06-19T12:04:04;32.40;29.30
17208;DHT22;8720;48.488;9.202;2023-06-19T12:06:31;32.40;29.20
17208;DHT22;8720;48.488;9.202;2023-06-19T12:09:02;32.40;29.10
17208;DHT22;8720;48.488;9.202;2023-06-19T12:11:31;32.50;29.00
17208;DHT22;8720;48.488;9.202;2023-06-19T12:13:58;32.50;29.10
17208;DHT22;8720;48.488;9.202;2023-06-19T12:16:26;32.50;29.00
17208;DHT22;8720;48.488;9.202;2023-06-19T12:18:54;32.60;29.10
17208;DHT22;8720;48.488;9.202;2023-06-19T12:21:21;32.60;29.00
17208;DHT22;8720;48.488;9.202;2023-06-19T12:23:48;32.60;29.00
17208;DHT22;8720;48.488;9.202;2023-06-19T12:26:17;32.70;29.10
17208;DHT22;8720;48.488;9.202;2023-06-19T12:28:46;32.70;29.10
17208;DHT22;8720;48.488;9.202;2023-06-19T12:31:13;32.70;29.00
17208;DHT22;8720;48.488;9.202;2023-06-19T12:33:40;32.70;29.00
17208;DHT22;8720;48.488;9.202;2023-06-19T12:36:11;32.70;28.90
17208;DHT22;8720;48.488;9.202;2023-06-19T12:38:39;32.80;28.80
17208;DHT22;8720;48.488;9.202;2023-06-19T12:41:06;32.80;28.70
17208;DHT22;8720;48.488;9.202;2023-06-19T12:43:35;32.80;28.80
17208;DHT22;8720;48.488;9.202;2023-06-19T12:46:02;32.80;28.60
17208;DHT22;8720;48.488;9.202;2023-06-19T12:48:30;32.80;28.60
17208;DHT22;8720;48.488;9.202;2023-06-19T12:50:58;32.80;28.80
17208;DHT22;8720;48.488;9.202;2023-06-19T12:53:26;32.80;28.80
17208;DHT22;8720;48.488;9.202;2023-06-19T12:55:56;32.80;28.60
17208;DHT22;8720;48.488;9.202;2023-06-19T12:58:24;32.80;28.60
17208;DHT22;8720;48.488;9.202;2023-06-19T13:00:54;32.80;28.50
17208;DHT22;8720;48.488;9.202;2023-06-19T13:03:21;32.80;28.40
17208;DHT22;8720;48.488;9.202;2023-06-19T13:05:49;32.70;28.50
17208;DHT22;8720;48.488;9.202;2023-06-19T13:08:16;32.70;28.90
17208;DHT22;8720;48.488;9.202;2023-06-19T13:10:44;32.70;28.40
17208;DHT22;8720;48.488;9.202;2023-06-19T13:13:11;32.70;28.50
17208;DHT22;8720;48.488;9.202;2023-06-19T13:15:38;32.60;28.60
17208;DHT22;8720;48.488;9.202;2023-06-19T13:18:07;32.60;28.60
17208;DHT22;8720;48.488;9.202;2023-06-19T13:20:34;32.60;28.70
17208;DHT22;8720;48.488;9.202;2023-06-19T13:23:02;32.60;28.40
17208;DHT22;8720;48.488;9.202;2023-06-19T13:25:29;32.60;28.50
17208;DHT22;8720;48.488;9.202;2023-06-19T13:27:58;32.60;28.90
17208;DHT22;8720;48.488;9.202;2023-06-19T13:30:25;32.60;28.60
17208;DHT22;8720;48.488;9.202;2023-06-19T13:32:52;32.60;28.70
17208;DHT22;8720;48.488;9.202;2023-06-19T13:35:21;32.70;28.80
17208;DHT22;8720;48.488;9.202;2023-06-19T13:37:48;32.70;28.60
17208;DHT22;8720;48.488;9.202;2023-06-19T13:40:16;32.70;28.80
17208;DHT22;8720;48.488;9.202;2023-06-19T13:42:43;32.70;28.70
17208;DHT22;8720;48.488;9.202;2023-06-19T13:45:11;32.70;28.60
17208;DHT22;8720;48.488;9.202;2023-06-19T13:47:38;32.70;28.60
17208;DHT22;8720;48.488;9.202;2023-06-19T13:50:06;32.70;28.80
17208;DHT22;8720;48.488;9.202;2023-06-19T13:52:36;32.70;28.70
17208;DHT22;8720;48.488;9.202;2023-06-19T13:55:04;32.70;28.60
17208;DHT22;8720;48.488;9.202;2023-06-19T13:57:32;32.70;28.60
17208;DHT22;8720;48.488;9.202;2023-06-19T13:59:59;32.70;28.60
17208;DHT22;8720;48.488;9.202;2023-06-19T14:02:26;32.70;28.70
17208;DHT22;8720;48.488;9.202;2023-06-19T14:04:54;32.70;28.60
17208;DHT22;8720;48.488;9.202;2023-06-19T14:07:22;32.70;28.80
17208;DHT22;8720;48.488;9.202;2023-06-19T14:09:52;32.70;28.70
17208;DHT22;8720;48.488;9.202;2023-06-19T14:12:20;32.70;28.70
17208;DHT22;8720;48.488;9.202;2023-06-19T14:14:50;32.80;28.70
17208;DHT22;8720;48.488;9.202;2023-06-19T14:17:17;32.80;28.60
17208;DHT22;8720;48.488;9.202;2023-06-19T14:19:45;32.90;28.80
17208;DHT22;8720;48.488;9.202;2023-06-19T14:22:12;32.90;28.80
17208;DHT22;8720;48.488;9.202;2023-06-19T14:24:39;33.00;28.50
17208;DHT22;8720;48.488;9.202;2023-06-19T14:27:08;33.10;28.50
17208;DHT22;8720;48.488;9.202;2023-06-19T14:29:35;33.10;28.40
17208;DHT22;8720;48.488;9.202;2023-06-19T14:32:03;33.20;28.30
17208;DHT22;8720;48.488;9.202;2023-06-19T14:34:31;33.30;28.20
17208;DHT22;8720;48.488;9.202;2023-06-19T14:36:58;33.30;28.30
17208;DHT22;8720;48.488;9.202;2023-06-19T14:39:26;33.30;28.20
17208;DHT22;8720;48.488;9.202;2023-06-19T14:41:53;33.40;28.10
17208;DHT22;8720;48.488;9.202;2023-06-19T14:44:22;33.30;28.00
17208;DHT22;8720;48.488;9.202;2023-06-19T14:46:49;33.40;28.20
17208;DHT22;8720;48.488;9.202;2023-06-19T14:49:17;33.30;28.10
17208;DHT22;8720;48.488;9.202;2023-06-19T14:51:45;33.30;28.00
17208;DHT22;8720;48.488;9.202;2023-06-19T14:54:12;33.30;28.00
17208;DHT22;8720;48.488;9.202;2023-06-19T14:56:41;33.30;28.20
17208;DHT22;8720;48.488;9.202;2023-06-19T14:59:09;33.20;28.10
17208;DHT22;8720;48.488;9.202;2023-06-19T15:01:38;33.20;28.10
17208;DHT22;8720;48.488;9.202;2023-06-19T15:04:06;33.20;28.40
17208;DHT22;8720;48.488;9.202;2023-06-19T15:06:33;33.10;28.40
17208;DHT22;8720;48.488;9.202;2023-06-19T15:09:00;33.10;28.50
17208;DHT22;8720;48.488;9.202;2023-06-19T15:11:28;33.00;28.40
17208;DHT22;8720;48.488;9.202;2023-06-19T15:13:55;33.00;28.40
17208;DHT22;8720;48.488;9.202;2023-06-19T15:16:23;33.00;28.50
17208;DHT22;8720;48.488;9.202;2023-06-19T15:18:53;33.00;28.70
17208;DHT22;8720;48.488;9.202;2023-06-19T15:21:21;33.00;28.70
17208;DHT22;8720;48.488;9.202;2023-06-19T15:23:48;33.00;28.40
17208;DHT22;8720;48.488;9.202;2023-06-19T15:26:15;32.90;28.70
17208;DHT22;8720;48.488;9.202;2023-06-19T15:28:43;32.90;28.70
17208;DHT22;8720;48.488;9.202;2023-06-19T15:31:10;32.90;28.80
17208;DHT22;8720;48.488;9.202;2023-06-19T15:33:37;32.90;28.60
17208;DHT22;8720;48.488;9.202;2023-06-19T15:36:06;32.80;28.40
17208;DHT22;8720;48.488;9.202;2023-06-19T15:38:34;32.80;28.60
17208;DHT22;8720;48.488;9.202;2023-06-19T15:41:02;32.70;28.60
17208;DHT22;8720;48.488;9.202;2023-06-19T15:43:29;32.60;28.80
17208;DHT22;8720;48.488;9.202;2023-06-19T15:45:56;32.50;29.20
17208;DHT22;8720;48.488;9.202;2023-06-19T15:48:24;32.50;30.10
17208;DHT22;8720;48.488;9.202;2023-06-19T15:50:51;32.40;32.40
17208;DHT22;8720;48.488;9.202;2023-06-19T15:53:20;32.20;33.80
17208;DHT22;8720;48.488;9.202;2023-06-19T15:55:47;31.90;34.70
17208;DHT22;8720;48.488;9.202;2023-06-19T15:58:15;31.50;35.40
17208;DHT22;8720;48.488;9.202;2023-06-19T16:00:42;31.20;35.90